sensor_id;sensor_type;location;lat;lon;timestamp;pressure;altitude;pressure_sealevel;temperature;humidity
28921;BME280;16035;53.594;9.952;2024-01-11T00:00:58;103304.16;;;0.05;73.14
28921;BME280;16035;53.594;9.952;2024-01-11T00:02:59;103307.03;;;-0.08;73.61
28921;BME280;16035;53.594;9.952;2024-01-11T00:04:59;103310.41;;;-0.06;73.58
28921;BME280;16035;53.594;9.952;2024-01-11T00:07:00;103298.72;;;-0.05;73.41
28921;BME280;16035;53.594;9.952;2024-01-11T00:09:00;103295.34;;;-0.07;73.65
28921;BME280;16035;53.594;9.952;2024-01-11T00:11:00;103282.97;;;-0.08;73.58
28921;BME280;16035;53.594;9.952;2024-01-11T00:13:01;103276.19;;;-0.12;73.88
28921;BME280;16035;53.594;9.952;2024-01-11T00:15:01;103283.00;;;-0.19;74.34
28921;BME280;16035;53.594;9.952;2024-01-11T00:17:01;103271.97;;;-0.26;74.18
28921;BME280;16035;53.594;9.952;2024-01-11T00:19:02;103268.31;;;-0.24;74.48
28921;BME280;16035;53.594;9.952;2024-01-11T00:21:03;103271.59;;;-0.21;74.29
28921;BME280;16035;53.594;9.952;2024-01-11T00:23:03;103273.25;;;-0.09;74.74
28921;BME280;16035;53.594;9.952;2024-01-11T00:25:04;103267.97;;;0.01;74.47
28921;BME280;16035;53.594;9.952;2024-01-11T00:27:05;103254.59;;;0.01;73.80
28921;BME280;16035;53.594;9.952;2024-01-11T00:29:05;103257.91;;;-0.07;74.35
28921;BME280;16035;53.594;9.952;2024-01-11T00:31:05;103259.22;;;-0.01;74.33
28921;BME280;16035;53.594;9.952;2024-01-11T00:33:06;103251.66;;;0.04;73.80
28921;BME280;16035;53.594;9.952;2024-01-11T00:35:07;103250.69;;;0.05;74.11
28921;BME280;16035;53.594;9.952;2024-01-11T00:37:07;103249.66;;;-0.04;73.72
28921;BME280;16035;53.594;9.952;2024-01-11T00:39:07;103251.28;;;-0.12;74.17
28921;BME280;16035;53.594;9.952;2024-01-11T00:41:07;103250.47;;;-0.24;74.49
28921;BME280;16035;53.594;9.952;2024-01-11T00:43:08;103247.19;;;-0.28;74.48
28921;BME280;16035;53.594;9.952;2024-01-11T00:45:08;103243.03;;;-0.20;74.78
28921;BME280;16035;53.594;9.952;2024-01-11T00:47:09;103242.44;;;-0.24;74.65
28921;BME280;16035;53.594;9.952;2024-01-11T00:49:10;103245.97;;;-0.23;74.41
28921;BME280;16035;53.594;9.952;2024-01-11T00:51:11;103241.56;;;-0.13;74.67
28921;BME280;16035;53.594;9.952;2024-01-11T00:53:11;103239.84;;;-0.14;74.52
28921;BME280;16035;53.594;9.952;2024-01-11T00:55:14;103239.84;;;-0.14;74.56
28921;BME280;16035;53.594;9.952;2024-01-11T00:57:16;103221.81;;;-0.22;74.40
28921;BME280;16035;53.594;9.952;2024-01-11T00:59:16;103217.81;;;-0.28;74.53
28921;BME280;16035;53.594;9.952;2024-01-11T01:01:17;103213.91;;;-0.23;74.48
28921;BME280;16035;53.594;9.952;2024-01-11T01:03:17;103198.22;;;-0.17;74.02
28921;BME280;16035;53.594;9.952;2024-01-11T01:05:18;103201.34;;;-0.12;74.64
28921;BME280;16035;53.594;9.952;2024-01-11T01:07:18;103208.75;;;-0.15;74.23
28921;BME280;16035;53.594;9.952;2024-01-11T01:09:18;103219.66;;;-0.07;74.59
28921;BME280;16035;53.594;9.952;2024-01-11T01:11:18;103215.28;;;-0.08;74.07
28921;BME280;16035;53.594;9.952;2024-01-11T01:13:19;103210.72;;;-0.17;74.04
28921;BME280;16035;53.594;9.952;2024-01-11T01:15:19;103200.53;;;-0.23;74.38
28921;BME280;16035;53.594;9.952;2024-01-11T01:17:19;103198.72;;;-0.23;74.11
28921;BME280;16035;53.594;9.952;2024-01-11T01:19:20;103202.81;;;-0.19;74.60
28921;BME280;16035;53.594;9.952;2024-01-11T01:21:20;103199.50;;;-0.11;74.48
28921;BME280;16035;53.594;9.952;2024-01-11T01:23:20;103190.00;;;-0.25;74.62
28921;BME280;16035;53.594;9.952;2024-01-11T01:25:21;103198.63;;;-0.33;74.61
28921;BME280;16035;53.594;9.952;2024-01-11T01:27:21;103194.59;;;-0.27;74.57
28921;BME280;16035;53.594;9.952;2024-01-11T01:29:21;103189.25;;;-0.27;74.99
28921;BME280;16035;53.594;9.952;2024-01-11T01:31:22;103199.94;;;-0.27;74.69
28921;BME280;16035;53.594;9.952;2024-01-11T01:33:22;103204.59;;;-0.29;74.60
28921;BME280;16035;53.594;9.952;2024-01-11T01:35:22;103209.09;;;-0.30;74.91
28921;BME280;16035;53.594;9.952;2024-01-11T01:37:23;103219.91;;;-0.31;74.86
28921;BME280;16035;53.594;9.952;2024-01-11T01:39:23;103200.22;;;-0.30;74.48
28921;BME280;16035;53.594;9.952;2024-01-11T01:41:23;103192.25;;;-0.41;75.17
28921;BME280;16035;53.594;9.952;2024-01-11T01:43:24;103194.31;;;-0.45;75.15
28921;BME280;16035;53.594;9.952;2024-01-11T01:45:24;103192.03;;;-0.49;75.42
28921;BME280;16035;53.594;9.952;2024-01-11T01:47:26;103186.50;;;-0.58;75.19
28921;BME280;16035;53.594;9.952;2024-01-11T01:49:26;103182.84;;;-0.57;75.59
28921;BME280;16035;53.594;9.952;2024-01-11T01:51:29;103197.19;;;-0.58;75.46
28921;BME280;16035;53.594;9.952;2024-01-11T01:53:30;103198.88;;;-0.57;75.50
28921;BME280;16035;53.594;9.952;2024-01-11T01:55:31;103206.38;;;-0.51;75.83
28921;BME280;16035;53.594;9.952;2024-01-11T01:57:33;103199.16;;;-0.39;75.44
28921;BME280;16035;53.594;9.952;2024-01-11T01:59:34;103202.28;;;-0.34;74.94
28921;BME280;16035;53.594;9.952;2024-01-11T02:01:35;103222.59;;;-0.31;74.77
28921;BME280;16035;53.594;9.952;2024-01-11T02:03:36;103238.34;;;-0.28;75.27
28921;BME280;16035;53.594;9.952;2024-01-11T02:05:36;103245.25;;;-0.26;74.95
28921;BME280;16035;53.594;9.952;2024-01-11T02:07:37;103247.00;;;-0.36;74.68
28921;BME280;16035;53.594;9.952;2024-01-11T02:09:38;103241.19;;;-0.41;74.98
28921;BME280;16035;53.594;9.952;2024-01-11T02:11:41;103243.53;;;-0.47;75.97
28921;BME280;16035;53.594;9.952;2024-01-11T02:13:41;103226.88;;;-0.40;75.22
28921;BME280;16035;53.594;9.952;2024-01-11T02:15:41;103224.75;;;-0.36;75.26
28921;BME280;16035;53.594;9.952;2024-01-11T02:17:42;103221.97;;;-0.35;74.78
28921;BME280;16035;53.594;9.952;2024-01-11T02:19:42;103238.50;;;-0.41;75.13
28921;BME280;16035;53.594;9.952;2024-01-11T02:21:43;103233.94;;;-0.50;75.31
28921;BME280;16035;53.594;9.952;2024-01-11T02:24:02;103235.75;;;-0.51;75.74
28921;BME280;16035;53.594;9.952;2024-01-11T02:26:02;103241.91;;;-0.39;75.57
28921;BME280;16035;53.594;9.952;2024-01-11T02:28:03;103247.47;;;-0.31;75.77
28921;BME280;16035;53.594;9.952;2024-01-11T02:30:04;103236.41;;;-0.26;75.18
28921;BME280;16035;53.594;9.952;2024-01-11T02:32:04;103237.69;;;-0.20;75.06
28921;BME280;16035;53.594;9.952;2024-01-11T02:34:06;103250.31;;;-0.22;74.53
28921;BME280;16035;53.594;9.952;2024-01-11T02:36:06;103254.25;;;-0.27;75.00
28921;BME280;16035;53.594;9.952;2024-01-11T02:38:07;103257.63;;;-0.24;75.13
28921;BME280;16035;53.594;9.952;2024-01-11T02:40:08;103261.41;;;-0.27;75.50
28921;BME280;16035;53.594;9.952;2024-01-11T02:42:08;103252.69;;;-0.29;74.82
28921;BME280;16035;53.594;9.952;2024-01-11T02:44:09;103249.88;;;-0.28;75.16
28921;BME280;16035;53.594;9.952;2024-01-11T02:46:09;103244.91;;;-0.32;75.30
28921;BME280;16035;53.594;9.952;2024-01-11T02:48:09;103239.06;;;-0.26;75.37
28921;BME280;16035;53.594;9.952;2024-01-11T02:50:10;103235.41;;;-0.25;75.67
28921;BME280;16035;53.594;9.952;2024-01-11T02:52:13;103244.75;;;-0.19;75.24
28921;BME280;16035;53.594;9.952;2024-01-11T02:54:14;103248.25;;;-0.19;75.35
28921;BME280;16035;53.594;9.952;2024-01-11T02:56:14;103233.84;;;-0.28;75.63
28921;BME280;16035;53.594;9.952;2024-01-11T02:58:14;103234.22;;;-0.32;75.92
28921;BME280;16035;53.594;9.952;2024-01-11T03:00:15;103232.34;;;-0.20;75.65
28921;BME280;16035;53.594;9.952;2024-01-11T03:02:15;103229.28;;;-0.16;75.21
28921;BME280;16035;53.594;9.952;2024-01-11T03:04:16;103232.09;;;-0.17;75.38
28921;BME280;16035;53.594;9.952;2024-01-11T03:06:17;103225.91;;;-0.18;75.46
28921;BME280;16035;53.594;9.952;2024-01-11T03:08:21;103225.44;;;-0.23;75.60
28921;BME280;16035;53.594;9.952;2024-01-11T03:10:22;103233.44;;;-0.23;75.16
28921;BME280;16035;53.594;9.952;2024-01-11T03:12:22;103231.97;;;-0.16;75.39
28921;BME280;16035;53.594;9.952;2024-01-11T03:14:23;103236.78;;;-0.10;75.43
28921;BME280;16035;53.594;9.952;2024-01-11T03:16:23;103239.91;;;-0.05;75.07
28921;BME280;16035;53.594;9.952;2024-01-11T03:18:23;103235.56;;;-0.06;75.20
28921;BME280;16035;53.594;9.952;2024-01-11T03:20:23;103237.97;;;-0.03;75.55
28921;BME280;16035;53.594;9.952;2024-01-11T03:22:25;103225.31;;;-0.01;75.11
28921;BME280;16035;53.594;9.952;2024-01-11T03:24:25;103225.06;;;0.03;75.10
28921;BME280;16035;53.594;9.952;2024-01-11T03:26:25;103218.41;;;-0.03;74.69
28921;BME280;16035;53.594;9.952;2024-01-11T03:28:25;103211.88;;;-0.10;75.13
28921;BME280;16035;53.594;9.952;2024-01-11T03:30:26;103231.03;;;-0.05;75.25
28921;BME280;16035;53.594;9.952;2024-01-11T03:32:26;103222.38;;;0.03;75.24
28921;BME280;16035;53.594;9.952;2024-01-11T03:34:27;103214.72;;;0.09;75.24
28921;BME280;16035;53.594;9.952;2024-01-11T03:36:27;103225.56;;;0.17;75.48
28921;BME280;16035;53.594;9.952;2024-01-11T03:38:27;103219.13;;;0.20;74.94
28921;BME280;16035;53.594;9.952;2024-01-11T03:40:28;103236.00;;;0.20;74.42
28921;BME280;16035;53.594;9.952;2024-01-11T03:42:28;103250.41;;;0.08;75.04
28921;BME280;16035;53.594;9.952;2024-01-11T03:44:28;103256.59;;;0.09;75.63
28921;BME280;16035;53.594;9.952;2024-01-11T03:46:29;103252.84;;;0.11;75.49
28921;BME280;16035;53.594;9.952;2024-01-11T03:48:30;103254.28;;;0.15;75.24
28921;BME280;16035;53.594;9.952;2024-01-11T03:50:30;103258.50;;;0.18;75.16
28921;BME280;16035;53.594;9.952;2024-01-11T03:52:30;103253.44;;;0.15;75.29
28921;BME280;16035;53.594;9.952;2024-01-11T03:54:31;103255.25;;;0.14;75.27
28921;BME280;16035;53.594;9.952;2024-01-11T03:56:31;103246.13;;;0.17;75.51
28921;BME280;16035;53.594;9.952;2024-01-11T03:58:31;103242.44;;;0.18;75.12
28921;BME280;16035;53.594;9.952;2024-01-11T04:00:32;103232.09;;;0.24;75.02
28921;BME280;16035;53.594;9.952;2024-01-11T04:02:33;103218.13;;;0.21;75.09
28921;BME280;16035;53.594;9.952;2024-01-11T04:04:33;103214.03;;;0.17;75.15
28921;BME280;16035;53.594;9.952;2024-01-11T04:06:34;103209.22;;;0.11;75.43
28921;BME280;16035;53.594;9.952;2024-01-11T04:08:34;103202.19;;;0.10;75.49
28921;BME280;16035;53.594;9.952;2024-01-11T04:10:35;103200.22;;;0.12;75.20
28921;BME280;16035;53.594;9.952;2024-01-11T04:12:36;103193.16;;;0.11;75.14
28921;BME280;16035;53.594;9.952;2024-01-11T04:14:40;103198.06;;;0.06;75.23
28921;BME280;16035;53.594;9.952;2024-01-11T04:16:41;103186.66;;;0.04;75.20
28921;BME280;16035;53.594;9.952;2024-01-11T04:18:42;103184.97;;;0.03;75.40
28921;BME280;16035;53.594;9.952;2024-01-11T04:20:42;103186.94;;;0.01;75.45
28921;BME280;16035;53.594;9.952;2024-01-11T04:22:42;103189.31;;;0.04;75.34
28921;BME280;16035;53.594;9.952;2024-01-11T04:24:43;103169.94;;;0.11;75.26
28921;BME280;16035;53.594;9.952;2024-01-11T04:26:43;103168.44;;;0.18;75.18
28921;BME280;16035;53.594;9.952;2024-01-11T04:28:45;103162.22;;;0.18;74.86
28921;BME280;16035;53.594;9.952;2024-01-11T04:30:46;103169.47;;;0.27;74.74
28921;BME280;16035;53.594;9.952;2024-01-11T04:32:46;103164.66;;;0.21;74.89
28921;BME280;16035;53.594;9.952;2024-01-11T04:34:46;103158.84;;;0.16;74.92
28921;BME280;16035;53.594;9.952;2024-01-11T04:36:47;103139.56;;;0.12;74.85
28921;BME280;16035;53.594;9.952;2024-01-11T04:38:47;103137.88;;;0.11;75.04
28921;BME280;16035;53.594;9.952;2024-01-11T04:40:47;103140.09;;;0.06;75.01
28921;BME280;16035;53.594;9.952;2024-01-11T04:42:48;103154.31;;;0.07;75.31
28921;BME280;16035;53.594;9.952;2024-01-11T04:44:48;103149.22;;;0.04;75.00
28921;BME280;16035;53.594;9.952;2024-01-11T04:46:48;103147.09;;;-0.03;75.14
28921;BME280;16035;53.594;9.952;2024-01-11T04:48:50;103150.19;;;0.03;74.96
28921;BME280;16035;53.594;9.952;2024-01-11T04:50:50;103140.34;;;0.03;74.91
28921;BME280;16035;53.594;9.952;2024-01-11T04:52:50;103130.06;;;-0.02;75.07
28921;BME280;16035;53.594;9.952;2024-01-11T04:54:51;103125.56;;;-0.01;75.17
28921;BME280;16035;53.594;9.952;2024-01-11T04:56:52;103132.66;;;0.10;75.18
28921;BME280;16035;53.594;9.952;2024-01-11T04:58:52;103141.81;;;0.17;74.78
28921;BME280;16035;53.594;9.952;2024-01-11T05:00:52;103165.94;;;0.27;74.71
28921;BME280;16035;53.594;9.952;2024-01-11T05:02:53;103182.13;;;0.25;74.67
28921;BME280;16035;53.594;9.952;2024-01-11T05:04:53;103179.41;;;0.15;74.38
28921;BME280;16035;53.594;9.952;2024-01-11T05:06:53;103185.22;;;-0.01;74.66
28921;BME280;16035;53.594;9.952;2024-01-11T05:08:54;103176.94;;;0.03;74.79
28921;BME280;16035;53.594;9.952;2024-01-11T05:10:54;103168.06;;;0.02;74.34
28921;BME280;16035;53.594;9.952;2024-01-11T05:12:55;103160.44;;;-0.03;75.23
28921;BME280;16035;53.594;9.952;2024-01-11T05:14:55;103164.81;;;-0.02;75.01
28921;BME280;16035;53.594;9.952;2024-01-11T05:16:55;103161.34;;;0.08;75.36
28921;BME280;16035;53.594;9.952;2024-01-11T05:18:57;103156.19;;;0.16;74.59
28921;BME280;16035;53.594;9.952;2024-01-11T05:20:57;103151.38;;;0.10;74.68
28921;BME280;16035;53.594;9.952;2024-01-11T05:22:58;103151.09;;;0.13;74.73
28921;BME280;16035;53.594;9.952;2024-01-11T05:24:58;103165.69;;;0.09;74.84
28921;BME280;16035;53.594;9.952;2024-01-11T05:26:58;103168.78;;;0.04;75.01
28921;BME280;16035;53.594;9.952;2024-01-11T05:28:59;103175.50;;;-0.02;75.27
28921;BME280;16035;53.594;9.952;2024-01-11T05:31:00;103172.31;;;0.05;75.60
28921;BME280;16035;53.594;9.952;2024-01-11T05:33:00;103181.50;;;0.12;75.12
28921;BME280;16035;53.594;9.952;2024-01-11T05:35:00;103193.63;;;0.16;74.64
28921;BME280;16035;53.594;9.952;2024-01-11T05:37:01;103185.44;;;0.17;74.57
28921;BME280;16035;53.594;9.952;2024-01-11T05:39:01;103182.53;;;0.20;74.92
28921;BME280;16035;53.594;9.952;2024-01-11T05:41:01;103185.94;;;0.22;74.26
28921;BME280;16035;53.594;9.952;2024-01-11T05:43:02;103174.19;;;0.14;74.81
28921;BME280;16035;53.594;9.952;2024-01-11T05:45:04;103176.13;;;0.12;74.83
28921;BME280;16035;53.594;9.952;2024-01-11T05:47:04;103165.25;;;0.04;75.21
28921;BME280;16035;53.594;9.952;2024-01-11T05:49:05;103166.91;;;-0.05;75.29
28921;BME280;16035;53.594;9.952;2024-01-11T05:51:05;103161.84;;;-0.08;75.47
28921;BME280;16035;53.594;9.952;2024-01-11T05:53:06;103160.19;;;0.01;75.48
28921;BME280;16035;53.594;9.952;2024-01-11T05:55:06;103162.72;;;0.02;75.28
28921;BME280;16035;53.594;9.952;2024-01-11T05:57:06;103147.66;;;0.01;75.22
28921;BME280;16035;53.594;9.952;2024-01-11T05:59:07;103145.59;;;0.05;75.29
28921;BME280;16035;53.594;9.952;2024-01-11T06:01:07;103147.72;;;0.11;75.22
28921;BME280;16035;53.594;9.952;2024-01-11T06:03:08;103145.50;;;0.16;75.39
28921;BME280;16035;53.594;9.952;2024-01-11T06:05:09;103144.25;;;0.20;75.33
28921;BME280;16035;53.594;9.952;2024-01-11T06:07:09;103134.38;;;0.20;75.27
28921;BME280;16035;53.594;9.952;2024-01-11T06:09:10;103133.00;;;0.26;75.45
28921;BME280;16035;53.594;9.952;2024-01-11T06:11:10;103139.72;;;0.20;75.31
28921;BME280;16035;53.594;9.952;2024-01-11T06:13:11;103140.72;;;0.19;75.64
28921;BME280;16035;53.594;9.952;2024-01-11T06:15:11;103138.63;;;0.23;75.68
28921;BME280;16035;53.594;9.952;2024-01-11T06:17:11;103130.31;;;0.26;75.40
28921;BME280;16035;53.594;9.952;2024-01-11T06:19:12;103134.66;;;0.17;75.23
28921;BME280;16035;53.594;9.952;2024-01-11T06:21:12;103133.75;;;0.07;75.66
28921;BME280;16035;53.594;9.952;2024-01-11T06:23:12;103142.44;;;-0.01;75.76
28921;BME280;16035;53.594;9.952;2024-01-11T06:25:13;103149.91;;;-0.04;76.42
28921;BME280;16035;53.594;9.952;2024-01-11T06:27:13;103146.16;;;0.08;75.80
28921;BME280;16035;53.594;9.952;2024-01-11T06:29:13;103141.97;;;0.15;75.93
28921;BME280;16035;53.594;9.952;2024-01-11T06:31:14;103151.53;;;0.18;75.81
28921;BME280;16035;53.594;9.952;2024-01-11T06:33:14;103153.75;;;0.13;75.49
28921;BME280;16035;53.594;9.952;2024-01-11T06:35:14;103148.41;;;0.13;76.21
28921;BME280;16035;53.594;9.952;2024-01-11T06:37:15;103143.22;;;0.11;76.22
28921;BME280;16035;53.594;9.952;2024-01-11T06:39:15;103143.06;;;0.13;75.97
28921;BME280;16035;53.594;9.952;2024-01-11T06:41:15;103142.25;;;0.22;76.04
28921;BME280;16035;53.594;9.952;2024-01-11T06:43:16;103137.91;;;0.21;76.08
28921;BME280;16035;53.594;9.952;2024-01-11T06:45:17;103147.09;;;0.28;76.08
28921;BME280;16035;53.594;9.952;2024-01-11T06:47:20;103157.38;;;0.33;76.37
28921;BME280;16035;53.594;9.952;2024-01-11T06:49:21;103155.81;;;0.30;76.22
28921;BME280;16035;53.594;9.952;2024-01-11T06:51:22;103160.47;;;0.28;76.11
28921;BME280;16035;53.594;9.952;2024-01-11T06:53:23;103159.66;;;0.37;76.21
28921;BME280;16035;53.594;9.952;2024-01-11T06:55:23;103159.41;;;0.40;75.99
28921;BME280;16035;53.594;9.952;2024-01-11T06:57:23;103158.59;;;0.49;76.15
28921;BME280;16035;53.594;9.952;2024-01-11T06:59:24;103146.47;;;0.45;76.06
28921;BME280;16035;53.594;9.952;2024-01-11T07:01:25;103146.47;;;0.45;75.89
28921;BME280;16035;53.594;9.952;2024-01-11T07:03:25;103153.09;;;0.51;76.02
28921;BME280;16035;53.594;9.952;2024-01-11T07:05:26;103143.81;;;0.55;76.34
28921;BME280;16035;53.594;9.952;2024-01-11T07:07:26;103153.78;;;0.53;76.31
28921;BME280;16035;53.594;9.952;2024-01-11T07:09:27;103151.81;;;0.45;76.46
28921;BME280;16035;53.594;9.952;2024-01-11T07:11:27;103155.75;;;0.41;76.49
28921;BME280;16035;53.594;9.952;2024-01-11T07:13:28;103163.88;;;0.40;76.69
28921;BME280;16035;53.594;9.952;2024-01-11T07:15:29;103172.81;;;0.50;76.74
28921;BME280;16035;53.594;9.952;2024-01-11T07:17:29;103175.34;;;0.52;76.27
28921;BME280;16035;53.594;9.952;2024-01-11T07:19:30;103170.44;;;0.57;76.81
28921;BME280;16035;53.594;9.952;2024-01-11T07:21:30;103163.81;;;0.61;76.86
28921;BME280;16035;53.594;9.952;2024-01-11T07:23:32;103170.34;;;0.68;76.37
28921;BME280;16035;53.594;9.952;2024-01-11T07:25:35;103177.13;;;0.72;76.06
28921;BME280;16035;53.594;9.952;2024-01-11T07:27:44;103173.31;;;0.74;76.49
28921;BME280;16035;53.594;9.952;2024-01-11T07:29:57;103166.94;;;0.75;76.41
28921;BME280;16035;53.594;9.952;2024-01-11T07:31:59;103164.44;;;0.74;75.96
28921;BME280;16035;53.594;9.952;2024-01-11T07:34:00;103173.63;;;0.81;76.24
28921;BME280;16035;53.594;9.952;2024-01-11T07:36:00;103171.78;;;0.82;76.44
28921;BME280;16035;53.594;9.952;2024-01-11T07:38:00;103173.88;;;0.78;76.33
28921;BME280;16035;53.594;9.952;2024-01-11T07:40:01;103183.47;;;0.81;76.47
28921;BME280;16035;53.594;9.952;2024-01-11T07:42:01;103187.84;;;0.82;76.38
28921;BME280;16035;53.594;9.952;2024-01-11T07:44:03;103174.03;;;0.86;76.49
28921;BME280;16035;53.594;9.952;2024-01-11T07:46:03;103173.91;;;0.88;76.43
28921;BME280;16035;53.594;9.952;2024-01-11T07:48:05;103169.13;;;0.91;76.60
28921;BME280;16035;53.594;9.952;2024-01-11T07:50:07;103178.84;;;0.92;76.52
28921;BME280;16035;53.594;9.952;2024-01-11T07:52:07;103173.91;;;0.97;76.72
28921;BME280;16035;53.594;9.952;2024-01-11T07:54:08;103175.75;;;0.97;76.71
28921;BME280;16035;53.594;9.952;2024-01-11T07:56:08;103180.53;;;0.93;76.76
28921;BME280;16035;53.594;9.952;2024-01-11T07:58:08;103182.06;;;0.86;76.94
28921;BME280;16035;53.594;9.952;2024-01-11T08:00:09;103184.19;;;0.83;76.98
28921;BME280;16035;53.594;9.952;2024-01-11T08:02:09;103191.53;;;0.90;77.19
28921;BME280;16035;53.594;9.952;2024-01-11T08:04:09;103189.44;;;0.94;77.26
28921;BME280;16035;53.594;9.952;2024-01-11T08:06:10;103177.16;;;1.01;77.01
28921;BME280;16035;53.594;9.952;2024-01-11T08:08:11;103181.81;;;0.99;76.95
28921;BME280;16035;53.594;9.952;2024-01-11T08:10:11;103180.09;;;0.98;76.74
28921;BME280;16035;53.594;9.952;2024-01-11T08:12:11;103175.91;;;1.05;77.03
28921;BME280;16035;53.594;9.952;2024-01-11T08:14:13;103170.13;;;1.10;77.07
28921;BME280;16035;53.594;9.952;2024-01-11T08:16:17;103173.06;;;1.07;77.22
28921;BME280;16035;53.594;9.952;2024-01-11T08:18:18;103162.66;;;1.13;77.21
28921;BME280;16035;53.594;9.952;2024-01-11T08:20:18;103165.94;;;1.17;76.72
28921;BME280;16035;53.594;9.952;2024-01-11T08:22:19;103163.94;;;1.19;76.84
28921;BME280;16035;53.594;9.952;2024-01-11T08:24:19;103159.31;;;1.21;77.12
28921;BME280;16035;53.594;9.952;2024-01-11T08:26:20;103157.31;;;1.23;77.20
28921;BME280;16035;53.594;9.952;2024-01-11T08:28:22;103153.63;;;1.34;77.30
28921;BME280;16035;53.594;9.952;2024-01-11T08:30:22;103158.47;;;1.40;76.91
28921;BME280;16035;53.594;9.952;2024-01-11T08:32:22;103161.13;;;1.40;76.76
28921;BME280;16035;53.594;9.952;2024-01-11T08:34:23;103168.44;;;1.38;76.78
28921;BME280;16035;53.594;9.952;2024-01-11T08:36:31;103162.53;;;1.44;76.57
28921;BME280;16035;53.594;9.952;2024-01-11T08:38:32;103160.56;;;1.46;76.84
28921;BME280;16035;53.594;9.952;2024-01-11T08:40:33;103150.69;;;1.46;77.07
28921;BME280;16035;53.594;9.952;2024-01-11T08:42:33;103144.22;;;1.49;77.01
28921;BME280;16035;53.594;9.952;2024-01-11T08:44:33;103158.88;;;1.35;76.84
28921;BME280;16035;53.594;9.952;2024-01-11T08:46:34;103150.28;;;1.32;77.16
28921;BME280;16035;53.594;9.952;2024-01-11T08:48:34;103153.94;;;1.40;77.23
28921;BME280;16035;53.594;9.952;2024-01-11T08:50:34;103151.53;;;1.47;77.42
28921;BME280;16035;53.594;9.952;2024-01-11T08:52:35;103144.63;;;1.54;77.32
28921;BME280;16035;53.594;9.952;2024-01-11T08:54:35;103150.25;;;1.61;77.35
28921;BME280;16035;53.594;9.952;2024-01-11T08:56:35;103144.47;;;1.65;76.78
28921;BME280;16035;53.594;9.952;2024-01-11T08:58:36;103142.66;;;1.66;76.63
28921;BME280;16035;53.594;9.952;2024-01-11T09:00:37;103151.94;;;1.71;76.98
28921;BME280;16035;53.594;9.952;2024-01-11T09:02:37;103145.16;;;1.77;76.94
28921;BME280;16035;53.594;9.952;2024-01-11T09:04:38;103136.81;;;1.80;76.82
28921;BME280;16035;53.594;9.952;2024-01-11T09:06:38;103123.16;;;1.83;76.67
28921;BME280;16035;53.594;9.952;2024-01-11T09:08:38;103140.31;;;1.90;76.46
28921;BME280;16035;53.594;9.952;2024-01-11T09:10:41;103137.22;;;1.95;76.38
28921;BME280;16035;53.594;9.952;2024-01-11T09:12:41;103141.16;;;1.91;76.44
28921;BME280;16035;53.594;9.952;2024-01-11T09:14:42;103146.13;;;1.86;76.49
28921;BME280;16035;53.594;9.952;2024-01-11T09:16:42;103135.16;;;1.79;76.51
28921;BME280;16035;53.594;9.952;2024-01-11T09:18:44;103138.09;;;1.76;76.71
28921;BME280;16035;53.594;9.952;2024-01-11T09:20:45;103121.03;;;1.77;76.88
28921;BME280;16035;53.594;9.952;2024-01-11T09:22:46;103123.28;;;1.72;77.04
28921;BME280;16035;53.594;9.952;2024-01-11T09:24:46;103131.75;;;1.77;77.05
28921;BME280;16035;53.594;9.952;2024-01-11T09:26:46;103125.09;;;1.81;76.98
28921;BME280;16035;53.594;9.952;2024-01-11T09:28:50;103116.63;;;1.86;76.84
28921;BME280;16035;53.594;9.952;2024-01-11T09:30:50;103124.09;;;1.82;76.83
28921;BME280;16035;53.594;9.952;2024-01-11T09:32:50;103125.38;;;1.88;76.57
28921;BME280;16035;53.594;9.952;2024-01-11T09:34:51;103124.94;;;1.92;76.86
28921;BME280;16035;53.594;9.952;2024-01-11T09:36:51;103127.91;;;1.89;76.90
28921;BME280;16035;53.594;9.952;2024-01-11T09:38:52;103127.09;;;1.79;76.67
28921;BME280;16035;53.594;9.952;2024-01-11T09:41:12;103121.75;;;1.79;76.91
28921;BME280;16035;53.594;9.952;2024-01-11T09:43:13;103114.78;;;1.86;76.81
28921;BME280;16035;53.594;9.952;2024-01-11T09:45:16;103119.03;;;1.89;76.74
28921;BME280;16035;53.594;9.952;2024-01-11T09:47:17;103121.13;;;1.95;76.67
28921;BME280;16035;53.594;9.952;2024-01-11T09:49:19;103119.59;;;1.92;76.81
28921;BME280;16035;53.594;9.952;2024-01-11T09:51:22;103122.78;;;1.96;77.11
28921;BME280;16035;53.594;9.952;2024-01-11T09:53:24;103114.16;;;2.12;76.81
28921;BME280;16035;53.594;9.952;2024-01-11T09:55:25;103109.56;;;2.22;76.80
28921;BME280;16035;53.594;9.952;2024-01-11T09:57:30;103100.25;;;2.26;76.49
28921;BME280;16035;53.594;9.952;2024-01-11T09:59:31;103106.00;;;2.31;76.51
28921;BME280;16035;53.594;9.952;2024-01-11T10:01:32;103108.28;;;2.26;75.67
28921;BME280;16035;53.594;9.952;2024-01-11T10:03:33;103108.06;;;2.19;76.65
28921;BME280;16035;53.594;9.952;2024-01-11T10:05:34;103115.34;;;2.27;76.69
28921;BME280;16035;53.594;9.952;2024-01-11T10:07:36;103114.44;;;2.36;76.46
28921;BME280;16035;53.594;9.952;2024-01-11T10:09:37;103110.19;;;2.43;76.55
28921;BME280;16035;53.594;9.952;2024-01-11T10:11:37;103099.47;;;2.43;76.65
28921;BME280;16035;53.594;9.952;2024-01-11T10:13:38;103099.56;;;2.51;76.50
28921;BME280;16035;53.594;9.952;2024-01-11T10:15:38;103102.63;;;2.57;76.29
28921;BME280;16035;53.594;9.952;2024-01-11T10:17:43;103105.25;;;2.66;76.58
28921;BME280;16035;53.594;9.952;2024-01-11T10:19:46;103099.59;;;2.69;76.06
28921;BME280;16035;53.594;9.952;2024-01-11T10:21:47;103084.22;;;2.62;76.15
28921;BME280;16035;53.594;9.952;2024-01-11T10:23:47;103095.72;;;2.54;76.04
28921;BME280;16035;53.594;9.952;2024-01-11T10:25:49;103094.28;;;2.60;76.15
28921;BME280;16035;53.594;9.952;2024-01-11T10:27:49;103085.69;;;2.56;76.29
28921;BME280;16035;53.594;9.952;2024-01-11T10:29:51;103090.44;;;2.62;76.18
28921;BME280;16035;53.594;9.952;2024-01-11T10:31:51;103088.47;;;2.64;75.77
28921;BME280;16035;53.594;9.952;2024-01-11T10:33:52;103090.59;;;2.61;76.48
28921;BME280;16035;53.594;9.952;2024-01-11T10:35:52;103088.84;;;2.69;76.33
28921;BME280;16035;53.594;9.952;2024-01-11T10:37:53;103096.75;;;2.71;76.10